Time;durP1;ratioP1;P1;durP2;ratioP2;P2;SDS_P1;SDS_P2;PMS_P1;PMS_P2;Temp;Humidity;BMP_temperature;BMP_pressure;BME280_temperature;BME280_humidity;BME280_pressure;Samples;Min_cycle;Max_cycle;Signal;HPM_P1;HPM_P2
2021/09/21 00:01:52;;;;;;;6.60;5.47;;;14.80;99.90;;;;;;5068532;28;20215;-71
2021/09/21 00:04:17;;;;;;;6.83;5.90;;;14.80;99.90;;;;;;5060997;28;20251;-71
2021/09/21 00:06:43;;;;;;;8.83;6.73;;;14.80;99.90;;;;;;5037126;28;20312;-71
2021/09/21 00:09:09;;;;;;;6.43;5.63;;;14.80;99.90;;;;;;5037578;28;20316;-70
2021/09/21 00:11:36;;;;;;;5.87;5.30;;;14.80;99.90;;;;;;5051239;28;20222;-70
2021/09/21 00:14:02;;;;;;;13.77;6.20;;;14.80;99.90;;;;;;5035804;28;20270;-70
2021/09/21 00:16:28;;;;;;;6.70;6.00;;;14.80;99.90;;;;;;5051027;28;20466;-71
2021/09/21 00:18:57;;;;;;;5.77;5.23;;;14.80;99.90;;;;;;5052149;28;20465;-71
2021/09/21 00:21:22;;;;;;;7.17;5.90;;;14.80;99.90;;;;;;5033726;28;20477;-71
2021/09/21 00:23:48;;;;;;;8.33;6.50;;;14.70;99.90;;;;;;5030882;28;20462;-71
2021/09/21 00:26:14;;;;;;;7.17;5.23;;;14.80;99.90;;;;;;5051548;28;20226;-70
2021/09/21 00:28:39;;;;;;;8.70;5.90;;;14.70;99.90;;;;;;5051148;28;20207;-71
2021/09/21 00:31:10;;;;;;;6.87;5.93;;;14.70;99.90;;;;;;5034889;28;20219;-68
2021/09/21 00:34:07;;;;;;;6.27;5.17;;;14.70;99.90;;;;;;5034088;28;20450;-71
2021/09/21 00:36:22;;;;;;;6.47;5.73;;;14.70;99.90;;;;;;5071165;28;20487;-71
2021/09/21 00:38:47;;;;;;;6.70;5.17;;;14.70;99.90;;;;;;5064559;28;20493;-71
2021/09/21 00:41:14;;;;;;;6.23;5.63;;;14.70;99.90;;;;;;5052070;28;20227;-71
2021/09/21 00:43:39;;;;;;;6.90;5.90;;;14.60;99.90;;;;;;5067949;28;20734;-71
2021/09/21 00:46:06;;;;;;;6.23;5.60;;;14.60;99.90;;;;;;5034272;28;20533;-70
2021/09/21 00:48:31;;;;;;;7.07;5.73;;;14.60;99.90;;;;;;5031637;28;20220;-71
2021/09/21 00:50:57;;;;;;;6.37;5.57;;;14.60;99.90;;;;;;5047074;28;20453;-71
2021/09/21 00:53:24;;;;;;;6.93;5.60;;;14.60;99.70;;;;;;5026450;28;20296;-71
2021/09/21 00:55:51;;;;;;;7.33;5.37;;;14.50;99.70;;;;;;5034672;28;20242;-71
2021/09/21 00:58:17;;;;;;;7.30;5.90;;;14.50;99.80;;;;;;5051418;28;20453;-70
2021/09/21 01:00:43;;;;;;;6.60;5.90;;;14.50;99.90;;;;;;5049954;28;20453;-71
2021/09/21 01:03:08;;;;;;;7.27;5.47;;;14.50;99.90;;;;;;5034110;28;20453;-71
2021/09/21 01:05:36;;;;;;;7.27;5.43;;;14.50;99.90;;;;;;5014631;28;20230;-71
2021/09/21 01:08:02;;;;;;;6.90;5.77;;;14.50;99.80;;;;;;5059223;28;20268;-70
2021/09/21 01:10:29;;;;;;;6.93;5.60;;;14.50;99.90;;;;;;5040131;28;20482;-70
2021/09/21 01:12:56;;;;;;;5.23;4.73;;;14.50;99.90;;;;;;5039250;28;20453;-71
2021/09/21 01:15:23;;;;;;;5.43;4.93;;;14.50;99.90;;;;;;5031089;28;20596;-71
2021/09/21 01:17:50;;;;;;;6.33;5.60;;;14.50;99.90;;;;;;5025357;28;20978;-72
2021/09/21 01:20:16;;;;;;;6.47;5.50;;;14.50;99.90;;;;;;5050126;28;20670;-71
2021/09/21 01:22:43;;;;;;;6.07;5.43;;;14.50;99.90;;;;;;5050741;28;20457;-70
2021/09/21 01:25:09;;;;;;;5.90;5.20;;;14.50;99.90;;;;;;5031209;28;20459;-71
2021/09/21 01:27:36;;;;;;;5.50;4.97;;;14.50;99.70;;;;;;5052958;28;20220;-71
2021/09/21 01:30:05;;;;;;;6.57;5.40;;;14.50;99.70;;;;;;5032039;28;20469;-69
2021/09/21 01:32:30;;;;;;;8.17;5.73;;;14.40;99.70;;;;;;5057211;28;20452;-71
2021/09/21 01:34:56;;;;;;;6.17;5.57;;;14.40;99.70;;;;;;5034619;28;20859;-71
2021/09/21 01:37:24;;;;;;;6.53;5.13;;;14.40;99.80;;;;;;5066270;28;20208;-71
2021/09/21 01:39:50;;;;;;;5.60;5.10;;;14.40;99.90;;;;;;5034200;28;20223;-71
2021/09/21 01:42:16;;;;;;;6.00;5.10;;;14.40;99.70;;;;;;5026954;28;20498;-71
2021/09/21 01:44:41;;;;;;;7.73;5.23;;;14.40;99.70;;;;;;5050328;28;20469;-71
2021/09/21 01:47:07;;;;;;;7.00;5.97;;;14.40;99.80;;;;;;5034506;28;20227;-71
2021/09/21 01:49:43;;;;;;;5.30;4.80;;;14.40;99.90;;;;;;5031659;28;20258;-71
2021/09/21 01:52:16;;;;;;;7.30;5.60;;;14.40;99.80;;;;;;5058753;28;20235;-69
2021/09/21 01:59:55;;;;;;;5.93;4.93;;;14.30;99.60;;;;;;5031739;28;20541;-71
2021/09/21 02:02:21;;;;;;;5.87;5.27;;;14.30;99.60;;;;;;5049177;28;20549;-71
2021/09/21 02:04:46;;;;;;;7.70;5.70;;;14.30;99.70;;;;;;5050564;28;20231;-70
2021/09/21 02:07:12;;;;;;;6.43;4.90;;;14.20;99.60;;;;;;5033365;28;20219;-70
2021/09/21 02:09:38;;;;;;;6.90;5.43;;;14.20;99.60;;;;;;5046206;28;20306;-71
2021/09/21 02:12:04;;;;;;;8.37;4.93;;;14.20;99.50;;;;;;5046179;28;20757;-71
2021/09/21 02:14:29;;;;;;;7.47;5.67;;;14.20;99.70;;;;;;5049159;28;20605;-71
2021/09/21 02:16:55;;;;;;;6.20;5.57;;;14.10;99.50;;;;;;5033353;28;20300;-71
2021/09/21 02:19:22;;;;;;;6.23;5.63;;;14.10;99.50;;;;;;5066733;28;20226;-70
2021/09/21 02:21:48;;;;;;;6.00;5.40;;;14.10;99.60;;;;;;5039870;28;20565;-71
2021/09/21 02:24:18;;;;;;;6.27;5.23;;;14.10;99.80;;;;;;5030548;28;20458;-71
2021/09/21 02:26:45;;;;;;;5.50;5.00;;;14.10;99.60;;;;;;5063619;28;20229;-71
2021/09/21 02:29:11;;;;;;;6.70;5.30;;;14.10;99.60;;;;;;5053469;28;20461;-70
2021/09/21 02:31:37;;;;;;;7.30;5.50;;;14.10;99.50;;;;;;5052268;28;20524;-71
2021/09/21 02:34:03;;;;;;;6.17;5.57;;;14.10;99.40;;;;;;5063544;28;20454;-72
2021/09/21 02:36:29;;;;;;;5.50;4.90;;;14.10;99.50;;;;;;5045953;28;20599;-71
2021/09/21 02:38:55;;;;;;;6.40;5.80;;;14.10;99.70;;;;;;5036727;28;20457;-71
2021/09/21 02:41:20;;;;;;;5.67;4.67;;;14.10;99.70;;;;;;5036188;28;20211;-70
2021/09/21 02:43:46;;;;;;;5.87;5.30;;;14.10;99.60;;;;;;5053937;28;20596;-71
2021/09/21 02:46:12;;;;;;;6.60;5.20;;;14.10;99.80;;;;;;5034949;28;20242;-71
2021/09/21 02:48:38;;;;;;;5.77;5.17;;;14.10;99.60;;;;;;5040871;28;20264;-71
2021/09/21 02:51:04;;;;;;;5.97;4.97;;;14.10;99.70;;;;;;5046543;28;20219;-71
2021/09/21 02:53:30;;;;;;;6.43;5.70;;;14.10;99.60;;;;;;5032430;28;20455;-71
2021/09/21 02:55:56;;;;;;;4.47;4.07;;;14.10;99.60;;;;;;5041131;28;20711;-70
2021/09/21 02:58:22;;;;;;;5.63;4.47;;;14.10;99.40;;;;;;5034207;28;20215;-71
2021/09/21 03:00:51;;;;;;;5.93;4.80;;;14.10;99.40;;;;;;5064882;28;20453;-71
2021/09/21 03:03:17;;;;;;;7.43;5.57;;;14.10;99.40;;;;;;5052383;28;20273;-71
2021/09/21 03:05:46;;;;;;;5.30;4.77;;;14.10;99.40;;;;;;5053323;28;20469;-71
2021/09/21 03:08:15;;;;;;;5.90;5.30;;;14.10;99.50;;;;;;5037319;28;20492;-71
2021/09/21 03:13:40;;;;;;;5.40;4.83;;;14.10;99.60;;;;;;5047429;28;20469;-71
2021/09/21 03:18:51;;;;;;;5.97;4.60;;;14.10;99.60;;;;;;5059576;28;20453;-71
2021/09/21 03:21:17;;;;;;;6.50;5.90;;;14.10;99.70;;;;;;5044160;28;20499;-71
2021/09/21 03:23:42;;;;;;;5.47;4.93;;;14.10;99.70;;;;;;5035309;28;20980;-71
2021/09/21 03:26:08;;;;;;;5.27;4.63;;;14.10;99.70;;;;;;5022467;28;20314;-72
2021/09/21 03:28:34;;;;;;;7.47;5.03;;;14.00;99.60;;;;;;5041873;28;20299;-71
2021/09/21 03:30:59;;;;;;;5.57;5.07;;;14.00;99.70;;;;;;5069486;28;20828;-70
2021/09/21 03:33:25;;;;;;;5.90;4.73;;;14.00;99.90;;;;;;5069508;28;20261;-71
2021/09/21 03:35:51;;;;;;;5.97;5.00;;;14.00;99.80;;;;;;5029457;28;20235;-71
2021/09/21 03:38:17;;;;;;;6.67;6.07;;;14.00;99.80;;;;;;5048687;28;20225;-71
2021/09/21 03:40:42;;;;;;;7.20;5.80;;;14.00;99.90;;;;;;5025439;28;20523;-72
2021/09/21 03:43:08;;;;;;;5.63;4.87;;;14.00;99.90;;;;;;5049761;28;20277;-70
2021/09/21 03:45:34;;;;;;;8.37;5.40;;;14.00;99.90;;;;;;5015595;28;20215;-70
2021/09/21 03:48:00;;;;;;;5.40;4.90;;;13.90;99.90;;;;;;5047899;28;20548;-71
2021/09/21 03:50:26;;;;;;;5.50;4.70;;;13.90;99.90;;;;;;5050617;28;20215;-71
2021/09/21 03:52:52;;;;;;;5.87;4.97;;;14.00;99.90;;;;;;5037745;28;20227;-71
2021/09/21 03:55:19;;;;;;;6.10;4.73;;;14.00;99.90;;;;;;5020836;28;20843;-71
2021/09/21 03:57:44;;;;;;;6.07;5.47;;;14.00;99.90;;;;;;5052152;28;20695;-71
2021/09/21 04:00:11;;;;;;;5.80;4.40;;;14.00;99.90;;;;;;5068277;28;20487;-70
2021/09/21 04:02:40;;;;;;;5.47;4.90;;;14.00;99.90;;;;;;5034741;28;20219;-70
2021/09/21 04:05:06;;;;;;;7.70;5.00;;;14.00;99.90;;;;;;5065751;28;20974;-71
2021/09/21 04:07:32;;;;;;;7.40;4.37;;;14.00;99.90;;;;;;5052373;28;20219;-71
2021/09/21 04:09:57;;;;;;;6.73;5.27;;;14.00;99.90;;;;;;5047778;28;20580;-71
2021/09/21 04:12:23;;;;;;;9.20;5.50;;;14.00;99.90;;;;;;5030383;28;20208;-71
2021/09/21 04:14:49;;;;;;;5.60;4.63;;;14.00;99.80;;;;;;5050321;28;20231;-71
2021/09/21 04:17:15;;;;;;;6.37;5.00;;;14.00;99.80;;;;;;5031670;28;20219;-70
2021/09/21 04:19:40;;;;;;;5.27;4.70;;;14.10;99.90;;;;;;5063656;28;20321;-71
2021/09/21 04:22:06;;;;;;;6.27;4.70;;;14.00;99.80;;;;;;5051443;28;20234;-70
2021/09/21 04:24:33;;;;;;;5.73;4.90;;;14.10;99.90;;;;;;5049398;28;20225;-71
2021/09/21 04:27:00;;;;;;;6.67;5.47;;;14.10;99.90;;;;;;5047011;28;20462;-71
2021/09/21 04:29:25;;;;;;;5.63;5.03;;;14.00;99.90;;;;;;5051324;28;20537;-70
2021/09/21 04:31:53;;;;;;;6.23;5.20;;;14.00;99.70;;;;;;5035428;28;20536;-71
2021/09/21 04:34:19;;;;;;;6.13;5.17;;;14.00;99.70;;;;;;5063111;28;20207;-71
2021/09/21 04:36:44;;;;;;;5.20;4.70;;;14.00;99.60;;;;;;5049292;28;20978;-71
2021/09/21 04:39:10;;;;;;;5.23;4.50;;;14.00;99.80;;;;;;5070482;28;20218;-70
2021/09/21 04:41:37;;;;;;;5.10;4.67;;;14.00;99.60;;;;;;5022675;28;20305;-71
2021/09/21 04:44:03;;;;;;;10.07;5.43;;;14.00;99.70;;;;;;5049274;28;20269;-71
2021/09/21 04:46:30;;;;;;;7.80;4.70;;;14.00;99.60;;;;;;5049357;28;20919;-71
2021/09/21 04:48:56;;;;;;;6.30;5.20;;;14.00;99.60;;;;;;5029594;28;20492;-70
2021/09/21 04:51:21;;;;;;;5.63;4.20;;;14.00;99.60;;;;;;5045985;28;20997;-70
2021/09/21 04:53:47;;;;;;;5.10;4.17;;;14.00;99.60;;;;;;5064007;28;20310;-70
2021/09/21 04:56:12;;;;;;;7.30;5.20;;;14.00;99.60;;;;;;5032192;28;20227;-71
2021/09/21 04:58:38;;;;;;;4.50;3.83;;;14.00;99.60;;;;;;5058814;28;20215;-71
2021/09/21 05:01:04;;;;;;;3.40;3.10;;;14.00;99.60;;;;;;5063299;28;20223;-71
2021/09/21 05:03:29;;;;;;;5.13;4.50;;;13.90;99.30;;;;;;5031533;28;20717;-70
2021/09/21 05:05:55;;;;;;;4.90;4.37;;;14.00;99.60;;;;;;5030680;28;20222;-71
2021/09/21 05:08:21;;;;;;;5.07;4.17;;;13.90;99.50;;;;;;5051172;28;20211;-71
2021/09/21 05:10:46;;;;;;;4.60;4.10;;;13.90;99.40;;;;;;5044980;28;20226;-71
2021/09/21 05:13:13;;;;;;;4.57;4.10;;;13.90;99.40;;;;;;5033207;28;20643;-71
2021/09/21 05:15:39;;;;;;;4.70;3.97;;;13.90;99.30;;;;;;5052305;28;20223;-70
2021/09/21 05:18:05;;;;;;;5.57;4.67;;;13.90;99.20;;;;;;5052766;28;20468;-70
2021/09/21 05:20:30;;;;;;;4.80;4.23;;;13.90;99.00;;;;;;5052516;28;20226;-70
2021/09/21 05:22:56;;;;;;;5.80;4.60;;;13.90;99.10;;;;;;5035076;28;20235;-71
2021/09/21 05:25:22;;;;;;;5.40;4.30;;;13.90;99.20;;;;;;5052263;28;20226;-71
2021/09/21 05:27:48;;;;;;;11.10;4.20;;;13.90;98.90;;;;;;5069431;28;20234;-69
2021/09/21 05:30:15;;;;;;;8.10;3.90;;;13.80;99.00;;;;;;5048116;28;20867;-70
2021/09/21 05:32:41;;;;;;;4.90;3.93;;;13.80;98.90;;;;;;5069753;28;20461;-71
2021/09/21 05:35:08;;;;;;;5.47;4.00;;;13.80;99.00;;;;;;5069945;28;20469;-71
2021/09/21 05:37:34;;;;;;;4.33;3.87;;;13.80;98.80;;;;;;5044335;28;20453;-70
2021/09/21 05:39:59;;;;;;;3.67;3.37;;;13.80;98.70;;;;;;5052484;28;20454;-71
2021/09/21 05:42:25;;;;;;;4.10;3.30;;;13.80;98.90;;;;;;5050267;28;20260;-70
2021/09/21 05:44:52;;;;;;;6.93;3.63;;;13.80;98.90;;;;;;5035626;28;20263;-70
2021/09/21 05:47:18;;;;;;;6.07;4.50;;;13.80;98.70;;;;;;5035444;28;20453;-70
2021/09/21 05:49:44;;;;;;;5.13;4.27;;;13.80;98.70;;;;;;5053060;28;20492;-71
2021/09/21 05:52:09;;;;;;;6.20;4.23;;;13.70;98.50;;;;;;5038722;28;20297;-70
2021/09/21 05:54:35;;;;;;;4.37;3.97;;;13.70;98.60;;;;;;5055944;28;20513;-71
2021/09/21 05:57:01;;;;;;;5.33;3.90;;;13.70;98.70;;;;;;5048556;28;20242;-70
2021/09/21 05:59:27;;;;;;;5.40;4.20;;;13.70;98.60;;;;;;5033835;28;20227;-69
2021/09/21 06:01:52;;;;;;;4.80;4.00;;;13.70;98.80;;;;;;5056055;28;20225;-70
2021/09/21 06:04:18;;;;;;;4.03;3.67;;;13.70;98.80;;;;;;5049533;28;20224;-71
2021/09/21 06:06:43;;;;;;;5.20;4.00;;;13.70;98.80;;;;;;5048962;28;20312;-70
2021/09/21 06:09:09;;;;;;;4.87;3.83;;;13.70;98.80;;;;;;5015496;28;20224;-71
2021/09/21 06:11:36;;;;;;;5.80;4.10;;;13.70;99.00;;;;;;5043688;28;20220;-71
2021/09/21 06:14:03;;;;;;;7.10;4.43;;;13.80;99.20;;;;;;5024599;28;20306;-71
2021/09/21 06:16:29;;;;;;;4.73;3.83;;;13.80;99.00;;;;;;5066157;28;20488;-71
2021/09/21 06:18:55;;;;;;;4.50;3.53;;;13.80;98.70;;;;;;5050911;28;20965;-70
2021/09/21 06:21:21;;;;;;;5.60;4.20;;;13.80;98.70;;;;;;5049528;28;20246;-70
2021/09/21 06:23:48;;;;;;;4.60;3.40;;;13.80;98.70;;;;;;5049099;28;20473;-71
2021/09/21 06:26:13;;;;;;;3.40;3.03;;;13.80;98.70;;;;;;5050487;28;20238;-71
2021/09/21 06:28:39;;;;;;;5.20;3.40;;;13.70;98.60;;;;;;5038351;28;20445;-71
2021/09/21 06:31:05;;;;;;;4.40;3.80;;;13.70;98.70;;;;;;5034003;28;20273;-71
2021/09/21 06:33:31;;;;;;;4.20;3.80;;;13.70;98.60;;;;;;5058439;28;20224;-71
2021/09/21 06:35:56;;;;;;;6.10;4.03;;;13.70;98.90;;;;;;5060469;28;20240;-72
2021/09/21 06:38:22;;;;;;;3.97;3.60;;;13.70;98.70;;;;;;5033826;28;20630;-70
2021/09/21 06:40:48;;;;;;;4.80;4.03;;;13.70;98.80;;;;;;5028942;28;20215;-70
2021/09/21 06:43:14;;;;;;;4.07;3.50;;;13.70;98.70;;;;;;5048744;28;20695;-71
2021/09/21 06:45:40;;;;;;;4.20;3.53;;;13.70;98.70;;;;;;5049507;28;20586;-71
2021/09/21 06:48:05;;;;;;;3.70;3.13;;;13.70;98.80;;;;;;5030521;28;20718;-70
2021/09/21 06:50:32;;;;;;;5.00;3.77;;;13.70;98.70;;;;;;5038277;28;20370;-71
2021/09/21 06:52:57;;;;;;;4.57;3.90;;;13.70;99.20;;;;;;5054278;28;20242;-71
2021/09/21 06:55:23;;;;;;;5.07;3.10;;;13.70;98.80;;;;;;5050007;28;20485;-71
2021/09/21 06:57:51;;;;;;;4.47;3.97;;;13.70;99.10;;;;;;5050473;28;20248;-70
2021/09/21 07:00:17;;;;;;;3.43;3.13;;;13.80;99.50;;;;;;5033877;28;20223;-71
2021/09/21 07:02:47;;;;;;;5.53;3.40;;;13.80;99.00;;;;;;5065622;28;20517;-70
2021/09/21 07:05:14;;;;;;;4.20;3.73;;;13.80;99.30;;;;;;5066995;28;20460;-70
2021/09/21 07:07:44;;;;;;;4.30;3.90;;;13.80;99.30;;;;;;5032706;28;20441;-70
2021/09/21 07:10:10;;;;;;;3.67;2.73;;;13.90;99.20;;;;;;5047195;28;20220;-72
2021/09/21 07:12:36;;;;;;;4.83;3.90;;;13.90;99.40;;;;;;5028760;28;20453;-71
2021/09/21 07:15:02;;;;;;;5.83;3.40;;;13.90;99.50;;;;;;5054162;28;20235;-71
2021/09/21 07:17:27;;;;;;;3.43;2.70;;;14.00;99.00;;;;;;5036859;28;20306;-71
2021/09/21 07:19:53;;;;;;;2.77;2.53;;;13.90;98.60;;;;;;5035784;28;20230;-71
2021/09/21 07:22:19;;;;;;;2.57;2.37;;;13.90;98.50;;;;;;5035871;28;20223;-71
2021/09/21 07:24:44;;;;;;;3.70;2.70;;;14.00;98.90;;;;;;5069296;28;20608;-71
2021/09/21 07:27:10;;;;;;;2.87;2.67;;;14.00;98.80;;;;;;5037796;28;20238;-70
2021/09/21 07:29:36;;;;;;;2.40;2.20;;;14.00;98.40;;;;;;5053044;28;20301;-70
2021/09/21 07:32:02;;;;;;;3.10;2.23;;;14.10;97.70;;;;;;5071235;28;20223;-71
2021/09/21 07:34:29;;;;;;;2.70;2.33;;;14.10;97.90;;;;;;5037628;28;20227;-70
2021/09/21 07:36:54;;;;;;;2.73;2.43;;;14.10;98.10;;;;;;5069200;28;20445;-71
2021/09/21 07:39:20;;;;;;;3.10;2.80;;;14.20;98.00;;;;;;5066096;28;20891;-70
2021/09/21 07:41:47;;;;;;;2.50;2.30;;;14.20;97.40;;;;;;5030322;28;20241;-71
2021/09/21 07:44:13;;;;;;;3.23;2.60;;;14.10;97.30;;;;;;5052705;28;20985;-70
2021/09/21 07:46:39;;;;;;;3.00;2.67;;;14.20;97.50;;;;;;5047211;28;20568;-70
2021/09/21 07:49:04;;;;;;;3.60;3.00;;;14.20;97.40;;;;;;5018125;28;20254;-69
2021/09/21 07:51:30;;;;;;;2.57;2.37;;;14.20;97.10;;;;;;5043785;28;20687;-70
2021/09/21 07:53:56;;;;;;;5.03;2.50;;;14.30;97.60;;;;;;5037705;28;20224;-71
2021/09/21 07:56:21;;;;;;;3.17;2.47;;;14.40;97.20;;;;;;5025896;28;20269;-71
2021/09/21 07:58:47;;;;;;;2.93;2.30;;;14.40;97.20;;;;;;5051965;28;20650;-69
2021/09/21 08:01:13;;;;;;;3.37;2.83;;;14.50;97.20;;;;;;5035778;28;20219;-71
2021/09/21 08:03:39;;;;;;;2.73;2.53;;;14.40;97.20;;;;;;5034132;28;20464;-70
2021/09/21 08:06:04;;;;;;;2.97;2.70;;;14.50;97.70;;;;;;5053107;28;20223;-71
2021/09/21 08:08:30;;;;;;;2.67;2.43;;;14.60;97.50;;;;;;5052585;28;20227;-70
2021/09/21 08:10:57;;;;;;;4.40;2.23;;;14.70;97.50;;;;;;5033613;28;20233;-71
2021/09/21 08:13:24;;;;;;;3.13;2.30;;;14.70;97.60;;;;;;5033791;28;20218;-71
2021/09/21 08:15:49;;;;;;;2.80;2.53;;;14.90;97.90;;;;;;5051500;28;20461;-70
2021/09/21 08:18:15;;;;;;;2.40;2.20;;;14.90;97.90;;;;;;5068388;28;20960;-70
2021/09/21 08:20:41;;;;;;;3.07;2.77;;;15.00;97.70;;;;;;5068897;28;20476;-71
2021/09/21 08:23:07;;;;;;;2.60;2.40;;;15.10;97.90;;;;;;5042080;28;20255;-70
2021/09/21 08:25:32;;;;;;;2.93;2.67;;;15.20;97.70;;;;;;5030371;28;20688;-71
2021/09/21 08:27:58;;;;;;;2.90;2.67;;;15.30;97.50;;;;;;5036080;28;20231;-71
2021/09/21 08:30:24;;;;;;;4.43;3.60;;;15.30;97.50;;;;;;5050580;28;20234;-71
2021/09/21 08:32:50;;;;;;;5.03;3.13;;;15.30;96.70;;;;;;5065132;28;20535;-71
2021/09/21 08:35:15;;;;;;;3.30;3.00;;;15.30;96.30;;;;;;5031868;28;20227;-71
2021/09/21 08:37:41;;;;;;;3.60;3.00;;;15.30;96.00;;;;;;5047699;28;20225;-71
2021/09/21 08:40:08;;;;;;;3.53;2.90;;;15.40;96.50;;;;;;5032634;28;20230;-71
2021/09/21 08:42:34;;;;;;;3.20;2.67;;;15.30;95.40;;;;;;5020201;28;20474;-70
2021/09/21 08:44:59;;;;;;;4.87;3.30;;;15.30;95.30;;;;;;5030468;28;21020;-69
2021/09/21 08:47:26;;;;;;;3.73;2.80;;;15.30;94.80;;;;;;5029442;28;20220;-71
2021/09/21 08:49:56;;;;;;;5.40;3.70;;;15.20;94.80;;;;;;5064036;28;20718;-71
2021/09/21 08:52:21;;;;;;;5.77;4.17;;;15.30;95.20;;;;;;5032458;28;20507;-71
2021/09/21 08:54:47;;;;;;;4.33;3.67;;;15.20;94.40;;;;;;5033365;28;20469;-71
2021/09/21 08:57:13;;;;;;;4.97;4.40;;;15.30;94.50;;;;;;5050186;28;20234;-71
2021/09/21 08:59:38;;;;;;;4.77;4.27;;;15.20;93.90;;;;;;5049576;28;20226;-71
2021/09/21 09:02:11;;;;;;;4.20;3.70;;;15.30;93.90;;;;;;5048602;28;20288;-71
2021/09/21 09:04:39;;;;;;;4.13;3.63;;;15.40;94.40;;;;;;5040152;28;20242;-70
2021/09/21 09:07:06;;;;;;;5.53;3.50;;;15.40;94.00;;;;;;5064868;28;20457;-70
2021/09/21 09:09:35;;;;;;;4.23;2.90;;;15.40;93.70;;;;;;5039295;28;20458;-71
2021/09/21 09:12:04;;;;;;;3.27;2.97;;;15.40;93.70;;;;;;5049152;28;20830;-71
2021/09/21 09:14:33;;;;;;;7.83;3.60;;;15.50;94.00;;;;;;5065460;28;20499;-70
2021/09/21 09:17:01;;;;;;;5.67;3.03;;;15.60;94.10;;;;;;5047784;28;20977;-70
2021/09/21 09:19:37;;;;;;;2.73;2.47;;;15.80;94.50;;;;;;5032408;28;20468;-71
2021/09/21 09:22:07;;;;;;;3.13;2.60;;;16.00;94.30;;;;;;5029930;28;20451;-71
2021/09/21 09:24:50;;;;;;;8.10;2.80;;;16.00;93.70;;;;;;5055472;28;20469;-71
2021/09/21 09:27:16;;;;;;;2.97;2.53;;;16.10;93.90;;;;;;5048982;28;20534;-71
2021/09/21 09:29:56;;;;;;;2.87;2.63;;;16.10;93.80;;;;;;5025786;28;20458;-71
2021/09/21 09:32:22;;;;;;;3.37;2.80;;;16.20;94.40;;;;;;5048014;28;20464;-71
2021/09/21 09:34:48;;;;;;;4.30;2.77;;;16.20;93.70;;;;;;5077797;28;20477;-70
2021/09/21 09:37:14;;;;;;;3.97;3.03;;;16.20;93.50;;;;;;5047920;28;20327;-71
2021/09/21 09:39:41;;;;;;;3.60;3.27;;;16.30;93.60;;;;;;5049358;28;20753;-71
2021/09/21 09:42:08;;;;;;;3.87;3.17;;;16.40;94.00;;;;;;5037594;28;20235;-71
2021/09/21 09:44:34;;;;;;;4.00;2.90;;;16.50;93.50;;;;;;5028974;28;20463;-71
2021/09/21 09:47:04;;;;;;;3.67;3.00;;;16.50;92.90;;;;;;5013000;28;20466;-71
2021/09/21 09:49:35;;;;;;;3.57;3.03;;;16.60;93.10;;;;;;5030160;28;20270;-71
2021/09/21 09:52:10;;;;;;;3.93;3.53;;;16.50;92.40;;;;;;5048234;28;20454;-71
2021/09/21 09:54:38;;;;;;;3.30;3.00;;;16.40;91.90;;;;;;5048900;28;20473;-71
2021/09/21 09:57:05;;;;;;;3.03;2.77;;;16.30;91.80;;;;;;5052968;28;20461;-70
2021/09/21 09:59:31;;;;;;;2.73;2.53;;;16.40;92.00;;;;;;5048476;28;20481;-70
2021/09/21 10:01:57;;;;;;;3.27;3.00;;;16.40;91.70;;;;;;5032272;28;20551;-71
2021/09/21 10:04:23;;;;;;;3.03;2.73;;;16.50;92.00;;;;;;5023760;28;20222;-71
2021/09/21 10:06:49;;;;;;;5.90;3.03;;;16.60;92.20;;;;;;5038833;28;20465;-71
2021/09/21 10:09:15;;;;;;;3.30;2.63;;;16.80;91.80;;;;;;5039422;28;20454;-71
2021/09/21 10:11:44;;;;;;;3.87;3.23;;;16.90;91.60;;;;;;5040006;28;20223;-70
2021/09/21 10:14:11;;;;;;;5.33;3.80;;;16.70;91.20;;;;;;5042896;28;20461;-71
2021/09/21 10:17:05;;;;;;;3.77;3.47;;;16.70;91.60;;;;;;5012327;28;20470;-71
2021/09/21 10:19:34;;;;;;;4.23;2.90;;;16.70;91.50;;;;;;5045853;28;20465;-70
2021/09/21 10:22:01;;;;;;;5.33;3.47;;;16.80;90.90;;;;;;5017924;28;20526;-71
2021/09/21 10:24:49;;;;;;;4.47;4.07;;;16.90;91.20;;;;;;5028615;28;20481;-70
2021/09/21 10:27:22;;;;;;;9.43;3.10;;;16.90;91.10;;;;;;5046306;28;20506;-71
2021/09/21 10:29:59;;;;;;;3.50;3.20;;;17.00;91.30;;;;;;5052221;28;20560;-71
2021/09/21 10:32:25;;;;;;;2.90;2.70;;;17.00;91.20;;;;;;5031425;28;20492;-70
2021/09/21 10:34:52;;;;;;;3.90;3.40;;;17.00;90.70;;;;;;5040709;28;20507;-71
2021/09/21 10:37:23;;;;;;;3.70;3.00;;;17.00;90.40;;;;;;5066664;28;20489;-71
2021/09/21 10:40:03;;;;;;;3.27;2.97;;;17.00;90.60;;;;;;5048096;28;20231;-71
2021/09/21 10:42:28;;;;;;;3.90;3.00;;;16.90;90.70;;;;;;5021999;28;20462;-71
2021/09/21 10:45:01;;;;;;;2.83;2.63;;;17.00;90.40;;;;;;5040999;28;20461;-71
2021/09/21 10:47:30;;;;;;;3.00;2.73;;;17.10;90.20;;;;;;5039704;28;20246;-70
2021/09/21 10:50:14;;;;;;;3.33;2.77;;;17.20;90.60;;;;;;5041693;28;20454;-70
2021/09/21 10:52:41;;;;;;;2.97;2.70;;;17.30;90.30;;;;;;5041859;28;20453;-71
2021/09/21 10:55:11;;;;;;;3.00;2.70;;;17.30;90.30;;;;;;5070291;28;20495;-71
2021/09/21 10:57:40;;;;;;;2.93;2.63;;;17.40;90.10;;;;;;5051490;28;20470;-71
2021/09/21 11:00:10;;;;;;;3.40;3.07;;;17.50;89.60;;;;;;5047636;28;20457;-70
2021/09/21 11:02:49;;;;;;;2.70;2.50;;;17.40;88.80;;;;;;5031346;28;20515;-70
2021/09/21 11:05:17;;;;;;;3.07;2.77;;;17.40;87.60;;;;;;5025084;28;20468;-71
2021/09/21 11:07:51;;;;;;;8.23;3.27;;;17.60;88.30;;;;;;5051844;28;20449;-70
2021/09/21 11:10:18;;;;;;;3.43;2.50;;;17.60;88.20;;;;;;5067321;28;20466;-70
2021/09/21 11:12:48;;;;;;;2.80;2.37;;;17.60;87.80;;;;;;5026451;28;20484;-71
2021/09/21 11:15:15;;;;;;;2.73;2.50;;;17.60;87.50;;;;;;5034490;28;20466;-71
2021/09/21 11:17:41;;;;;;;3.00;2.70;;;17.40;87.60;;;;;;5068071;28;20445;-70
2021/09/21 11:20:07;;;;;;;2.80;2.50;;;17.60;88.10;;;;;;5052271;28;20880;-71
2021/09/21 11:22:36;;;;;;;3.03;2.73;;;17.50;87.60;;;;;;5032770;28;20219;-71
2021/09/21 11:25:07;;;;;;;2.93;2.73;;;17.60;87.90;;;;;;5025182;28;21051;-70
2021/09/21 11:27:34;;;;;;;3.57;3.20;;;17.60;88.40;;;;;;5061561;28;20457;-71
2021/09/21 11:30:03;;;;;;;4.60;2.70;;;17.60;88.30;;;;;;5045983;28;20454;-71
2021/09/21 11:32:28;;;;;;;2.90;2.60;;;17.70;88.90;;;;;;5051584;28;20961;-71
2021/09/21 11:35:01;;;;;;;4.23;2.87;;;17.80;89.00;;;;;;5036791;28;20502;-71
2021/09/21 11:37:27;;;;;;;3.17;2.87;;;17.90;88.80;;;;;;5053148;28;20226;-71
2021/09/21 11:39:53;;;;;;;2.97;2.67;;;17.90;88.70;;;;;;5071745;28;20455;-71
2021/09/21 11:42:21;;;;;;;3.17;2.90;;;17.80;88.80;;;;;;5063524;28;21004;-71
2021/09/21 11:44:46;;;;;;;2.30;2.20;;;18.00;88.60;;;;;;5063315;28;20993;-71
2021/09/21 11:47:12;;;;;;;3.47;2.73;;;18.10;89.00;;;;;;5053481;28;20496;-71
2021/09/21 11:49:38;;;;;;;2.60;2.40;;;18.30;89.00;;;;;;5049071;28;20231;-70
2021/09/21 11:52:06;;;;;;;3.07;2.60;;;18.30;88.60;;;;;;5028580;28;20308;-71
2021/09/21 11:54:32;;;;;;;5.73;2.77;;;18.20;88.90;;;;;;5045546;28;20227;-71
2021/09/21 11:56:58;;;;;;;2.37;2.17;;;18.20;88.00;;;;;;5021398;28;20529;-71
2021/09/21 11:59:24;;;;;;;3.73;2.20;;;18.00;89.20;;;;;;5032608;28;21042;-71
2021/09/21 12:01:52;;;;;;;3.30;3.00;;;18.20;89.70;;;;;;5036463;28;20215;-71
2021/09/21 12:04:18;;;;;;;3.40;2.40;;;18.30;89.10;;;;;;5051345;28;20227;-71
2021/09/21 12:06:44;;;;;;;3.90;2.70;;;18.20;89.50;;;;;;5035286;28;20456;-71
2021/09/21 12:09:10;;;;;;;5.13;2.90;;;18.10;89.00;;;;;;5050397;28;20445;-71
2021/09/21 12:11:36;;;;;;;2.60;2.40;;;18.10;89.00;;;;;;5060026;28;20973;-71
2021/09/21 12:14:05;;;;;;;3.83;2.57;;;18.20;88.80;;;;;;5036862;28;20639;-70
2021/09/21 12:16:31;;;;;;;4.03;3.33;;;18.30;88.40;;;;;;5016038;28;20538;-69
2021/09/21 12:18:58;;;;;;;3.83;2.60;;;18.20;87.50;;;;;;5034094;28;20522;-71
2021/09/21 12:21:28;;;;;;;2.73;2.40;;;18.30;87.50;;;;;;5033336;28;20214;-70
2021/09/21 12:23:54;;;;;;;3.27;2.97;;;18.40;87.20;;;;;;5018066;28;20473;-70
2021/09/21 12:26:21;;;;;;;3.20;2.60;;;18.40;88.30;;;;;;5048981;28;20475;-71
2021/09/21 12:28:52;;;;;;;4.50;2.87;;;18.30;88.40;;;;;;5065700;28;20242;-71
2021/09/21 12:31:25;;;;;;;2.60;2.40;;;18.20;88.90;;;;;;5035335;28;20465;-70
2021/09/21 12:33:53;;;;;;;2.67;2.47;;;18.10;88.10;;;;;;5052677;28;20449;-70
2021/09/21 12:36:37;;;;;;;2.90;2.67;;;18.20;88.30;;;;;;5027233;28;20469;-71
2021/09/21 12:39:07;;;;;;;2.23;2.00;;;18.20;88.30;;;;;;5035728;28;21023;-70
2021/09/21 12:41:39;;;;;;;3.27;2.70;;;18.10;88.20;;;;;;5067837;28;20980;-69
2021/09/21 12:44:07;;;;;;;4.00;2.50;;;18.20;89.40;;;;;;5049914;28;20523;-71
2021/09/21 12:46:34;;;;;;;5.63;2.77;;;18.30;89.00;;;;;;5030215;28;20455;-70
2021/09/21 12:48:59;;;;;;;3.30;2.73;;;18.30;88.10;;;;;;5015133;28;20466;-71
2021/09/21 12:51:40;;;;;;;3.53;2.37;;;18.40;89.10;;;;;;5035398;28;20450;-70
2021/09/21 12:54:11;;;;;;;3.30;2.50;;;18.50;89.30;;;;;;5051954;28;20218;-71
2021/09/21 12:56:39;;;;;;;2.70;2.50;;;18.50;88.80;;;;;;5068180;28;20846;-71